Latest Weather Observations for Gelantipy

IDV60801

Issued at 2:05 pm EST Tuesday 2 September 2014 (issued every 30 minutes, with the page automatically refreshed every 10 minutes)

About weather observations | Map of weather stations | Latest weather observations for VIC | Other Formats
Station Details ID: 084142 Name: GELANTIPY Lat: -37.22 Lon: 148.26 Height: 755.0 m
Data from the previous 72 hours. | See also: Recent months at Gelantipy
Date/Time
EST
Temp
°C
App
Temp
°C
Dew
Point
Rel
Hum
%
Delta-T
°C
Wind Press
QNH
hPa
Press
MSL
hPa
Rain
since 9 am
mm
Dir
 
Spd
km/h
Gust
km/h
Spd
kts
Gust
kts
02/02:00pm 2.0 -3.9 1.7 98 0.1 WSW 22 30 12 16 1013.2 1013.1 10.0
02/01:30pm 2.1 -3.4 1.8 98 0.1 WSW 20 28 11 15 1012.8 1012.6 8.0
02/01:00pm 1.6 -3.8 1.2 97 0.2 SW 19 28 10 15 1013.2 1013.1 6.4
02/12:30pm 2.1 -4.6 1.7 97 0.2 SW 26 37 14 20 1013.2 1013.1 4.8
02/12:00pm 3.5 -4.1 2.9 96 0.3 SW 32 56 17 30 1012.8 1012.6 2.6
02/11:50am 4.1 -3.1 3.2 94 0.4 SW 30 59 16 32 1012.5 1012.4 2.2
02/11:30am 5.2 -0.6 4.3 94 0.4 SW 24 35 13 19 1012.3 1012.2 1.0
02/11:00am 4.8 -0.1 3.9 94 0.4 SW 19 30 10 16 1012.6 1012.5 1.0
02/10:30am 4.9 0.4 4.0 94 0.4 SW 17 28 9 15 1012.5 1012.4 0.6
02/10:00am 4.9 -1.0 3.9 93 0.4 SW 24 39 13 21 1012.4 1012.3 0.2
02/09:30am 4.7 -1.2 3.7 93 0.4 SW 24 35 13 19 1012.1 1012.0 0.2
02/09:06am 4.5 -2.6 3.5 93 0.4 WSW 30 54 16 29 1011.9 1011.7 0.2
02/09:00am 4.7 -2.0 3.8 94 0.4 WSW 28 41 15 22 1012.0 1011.9 6.2
02/08:41am 4.9 -1.8 3.7 92 0.5 SW 28 46 15 25 1011.8 1011.6 6.0
02/08:30am 5.1 -2.1 3.1 87 0.9 SW 30 44 16 24 1011.6 1011.4 5.8
02/08:00am 5.1 -1.6 3.4 89 0.7 WSW 28 41 15 22 1011.5 1011.3 5.8
02/07:37am 5.0 -1.8 3.3 89 0.7 WSW 28 46 15 25 1011.1 1011.0 5.8
02/07:30am 4.9 -1.5 3.4 90 0.7 WSW 26 35 14 19 1011.1 1011.0 5.8
02/07:00am 5.0 -2.1 3.3 89 0.7 WSW 30 39 16 21 1011.0 1010.9 5.8
02/06:30am 4.8 0.2 3.5 91 0.6 SW 17 28 9 15 1010.3 1010.1 5.8
02/06:00am 4.8 0.9 3.6 92 0.5 SW 13 20 7 11 1010.5 1010.3 5.8
02/05:30am 4.9 -0.1 3.6 91 0.6 SW 19 32 10 17 1010.3 1010.1 5.8
02/05:00am 4.8 0.6 3.9 94 0.4 SW 15 26 8 14 1010.0 1009.8 5.8
02/04:30am 4.8 -0.3 4.1 95 0.3 SW 20 32 11 17 1009.7 1009.6 5.8
02/04:00am 4.7 -0.4 4.0 95 0.3 SW 20 30 11 16 1009.7 1009.6 5.6
02/03:30am 4.8 -0.3 4.2 96 0.3 SW 20 32 11 17 1009.5 1009.3 5.6
02/03:00am 4.9 -0.2 4.0 94 0.4 SW 20 35 11 19 1009.3 1009.1 5.2
02/02:30am 4.9 0.0 4.2 95 0.3 SW 19 26 10 14 1009.3 1009.1 5.2
02/02:00am 4.8 1.0 4.1 95 0.3 SW 13 22 7 12 1009.6 1009.5 4.6
02/01:30am 5.0 -0.5 4.0 93 0.4 WSW 22 32 12 17 1009.7 1009.6 4.2
02/01:00am 5.3 -0.1 4.4 94 0.4 WSW 22 32 12 17 1009.4 1009.2 3.6
02/12:30am 5.6 0.9 5.0 96 0.3 SSW 19 30 10 16 1009.1 1008.9 2.8
02/12:00am 6.5 2.8 6.1 97 0.2 SW 15 24 8 13 1009.3 1009.1 2.2
 
Date/Time
EST
Temp
°C
App
Temp
°C
Dew
Point
Rel
Hum
%
Delta-T
°C
Wind Press
QNH
hPa
Press
MSL
hPa
Rain
since 9 am
mm
Dir
 
Spd
km/h
Gust
km/h
Spd
kts
Gust
kts
01/11:30pm 7.1 5.6 6.8 98 0.1 SSW 4 7 2 4 1009.1 1008.9 1.6
01/11:00pm 7.3 5.4 6.9 97 0.2 S 6 9 3 5 1009.1 1008.9 1.2
01/10:30pm 7.5 6.8 6.8 95 0.3 CALM 0 6 0 3 1008.8 1008.6 0.4
01/10:00pm 8.3 5.9 5.1 80 1.5 N 7 11 4 6 1008.8 1008.6 0.4
01/09:30pm 7.8 5.3 6.4 91 0.7 N 9 15 5 8 1009.0 1008.8 0.4
01/09:00pm 7.6 5.2 6.9 95 0.3 N 9 11 5 6 1009.2 1009.0 0.4
01/08:30pm 7.7 6.6 6.8 94 0.4 SSE 2 7 1 4 1009.5 1009.3 0.4
01/08:00pm 7.9 5.8 6.8 93 0.5 WSW 7 9 4 5 1009.5 1009.3 0.2
01/07:30pm 8.3 5.8 6.4 88 0.9 S 9 17 5 9 1009.4 1009.2 0.2
01/07:00pm 9.5 6.9 6.2 80 1.6 E 9 13 5 7 1008.9 1008.7 0.2
01/06:30pm 12.1 8.5 5.0 62 3.4 WNW 13 19 7 10 1008.2 1008.0 0.0
01/06:00pm 12.2 8.9 4.7 60 3.6 W 11 17 6 9 1007.8 1007.6 0.0
01/05:30pm 12.9 9.4 3.6 53 4.4 WNW 11 15 6 8 1008.1 1007.9 0.0
01/05:00pm 13.6 8.7 1.9 45 5.3 W 17 26 9 14 1007.8 1007.6 0.0
01/04:30pm 14.1 7.9 2.0 44 5.5 NW 24 37 13 20 1007.5 1007.3 0.0
01/04:00pm 15.2 7.8 1.7 40 6.2 NW 30 44 16 24 1007.3 1007.0 0.0
01/03:44pm 14.7 7.7 1.9 42 5.9 NW 28 57 15 31 1007.1 1006.8 0.0
01/03:30pm 15.3 10.4 1.8 40 6.2 NNW 17 24 9 13 1007.2 1006.9 0.0
01/03:00pm 15.2 9.7 2.1 41 6.1 NNW 20 37 11 20 1007.4 1007.2 0.0
01/02:30pm 14.6 11.6 4.3 50 5.0 NNW 9 11 5 6 1007.7 1007.5 0.0
01/02:00pm 14.9 9.5 2.4 43 5.8 NNW 20 32 11 17 1007.8 1007.6 0.0
01/01:30pm 15.2 8.2 1.7 40 6.2 NNW 28 46 15 25 1007.9 1007.7 0.0
01/01:00pm 12.6 8.1 4.1 56 4.0 NNE 17 28 9 15 1008.7 1008.5 0.0
01/12:30pm 11.7 8.0 4.4 61 3.4 NNE 13 20 7 11 1009.2 1009.0 0.0
01/12:00pm 12.2 8.4 3.9 57 3.9 NE 13 22 7 12 1009.7 1009.6 0.0
01/11:30am 12.4 8.3 4.1 57 3.9 NNE 15 19 8 10 1010.5 1010.3 0.0
01/11:00am 12.9 8.4 4.1 55 4.2 NE 17 24 9 13 1010.6 1010.4 0.0
01/10:30am 13.0 8.6 4.7 57 4.0 NE 17 28 9 15 1010.8 1010.7 0.0
01/10:00am 12.8 8.7 4.5 57 4.0 NE 15 22 8 12 1011.4 1011.2 0.0
01/09:30am 10.9 6.3 3.7 61 3.3 NE 17 26 9 14 1011.9 1012.5 0.0
01/09:00am 11.7 5.5 4.2 60 3.5 NNE 26 33 14 18 1012.0 1012.6 0.0
01/08:30am 10.6 5.5 4.1 64 3.0 NNE 20 30 11 16 1012.2 1012.8 0.0
01/08:00am 10.1 6.1 2.7 60 3.3 NE 13 17 7 9 1012.9 1013.5 0.0
01/07:30am 8.9 4.9 3.1 67 2.6 NNE 13 17 7 9 1013.1 1013.7 0.0
01/07:00am 7.8 3.1 3.3 73 2.0 NNE 17 19 9 10 1012.9 1013.5 0.0
01/06:30am 7.6 2.9 3.1 73 2.0 NNE 17 20 9 11 1012.9 1013.5 0.0
01/06:00am 7.7 3.0 3.0 72 2.1 NNE 17 20 9 11 1012.8 1013.4 0.0
01/05:30am 7.5 3.1 2.6 71 2.1 NNE 15 20 8 11 1012.4 1013.0 0.0
01/05:00am 7.1 2.6 2.4 72 2.0 NNE 15 19 8 10 1012.5 1013.1 0.0
01/04:30am 8.8 4.0 2.8 66 2.7 NNE 17 20 9 11 1012.8 1013.4 0.0
01/04:00am 8.0 2.6 2.7 69 2.3 N 20 22 11 12 1012.9 1013.5 0.0
01/03:30am 7.8 1.7 2.9 71 2.2 N 24 28 13 15 1012.9 1013.5 0.0
01/03:00am 7.1 1.0 3.0 75 1.8 N 24 28 13 15 1013.1 1013.7 0.0
01/02:30am 7.0 1.3 3.1 76 1.7 N 22 26 12 14 1013.4 1014.0 0.0
01/02:00am 7.3 1.7 3.4 76 1.7 NNE 22 24 12 13 1013.8 1014.5 0.0
01/01:30am 8.4 3.4 3.5 71 2.2 NNE 19 24 10 13 1014.0 1014.7 0.0
01/01:00am 8.6 3.6 3.8 72 2.2 NNE 19 24 10 13 1014.5 1015.1 0.0
01/12:30am 8.6 3.5 4.2 74 2.0 NNE 20 24 11 13 1014.8 1015.4 0.0
01/12:00am 9.4 5.6 3.8 68 2.6 N 13 19 7 10 1014.9 1015.6 0.0
 
Date/Time
EST
Temp
°C
App
Temp
°C
Dew
Point
Rel
Hum
%
Delta-T
°C
Wind Press
QNH
hPa
Press
MSL
hPa
Rain
since 9 am
mm
Dir
 
Spd
km/h
Gust
km/h
Spd
kts
Gust
kts
31/11:30pm 8.9 4.8 4.3 73 2.1 N 15 19 8 10 1015.1 1015.8 0.0
31/11:00pm 8.5 5.1 4.1 74 2.0 N 11 15 6 8 1015.2 1015.9 0.0
31/10:30pm 9.6 5.9 4.4 70 2.4 N 13 19 7 10 1015.6 1016.2 0.0
31/10:00pm 9.4 6.5 4.4 71 2.3 N 9 11 5 6 1015.8 1016.4 0.0
31/09:30pm 8.7 4.9 4.1 73 2.1 N 13 22 7 12 1016.1 1016.8 0.0
31/09:00pm 9.5 6.6 4.5 71 2.3 NNW 9 15 5 8 1016.2 1016.9 0.0
31/08:30pm 10.3 7.0 4.5 67 2.7 N 11 15 6 8 1016.3 1017.0 0.0
31/08:00pm 7.6 5.1 3.6 76 1.8 W 6 7 3 4 1016.4 1017.1 0.0
31/07:30pm 8.3 7.0 4.1 75 1.9 CALM 0 0 0 0 1016.5 1017.2 0.0
31/07:00pm 9.0 6.5 3.8 70 2.4 N 6 7 3 4 1016.3 1017.0 0.0
31/06:30pm 10.0 7.6 4.2 67 2.7 WSW 6 9 3 5 1016.2 1016.9 0.0
31/06:00pm 11.7 9.1 4.0 59 3.6 N 7 9 4 5 1016.1 1016.8 0.0
31/05:30pm 13.8 12.6 4.4 53 4.5 CALM 0 0 0 0 1016.0 1016.7 0.0
31/05:00pm 15.0 13.3 3.8 47 5.4 S 2 6 1 3 1016.0 1016.7 0.0
31/04:30pm 15.0 12.6 4.1 48 5.2 ESE 6 9 3 5 1015.9 1016.5 0.0
31/04:00pm 15.5 13.3 5.1 50 5.1 E 6 9 3 5 1015.8 1016.4 0.0
31/03:30pm 15.7 13.1 3.2 43 5.9 SSE 6 11 3 6 1016.0 1016.7 0.0
31/03:00pm 15.4 12.5 2.6 42 6.0 SE 7 13 4 7 1016.1 1016.8 0.0
31/02:30pm 15.3 12.1 4.9 50 5.1 SSE 11 17 6 9 1016.4 1017.1 0.0
31/02:00pm 15.3 11.8 3.5 45 5.6 SSE 11 17 6 9 1016.8 1017.5 0.0
31/01:30pm 16.1 14.1 4.2 45 5.8 ENE 4 7 2 4 1017.2 1017.9 0.0
31/01:00pm 15.2 11.9 2.7 43 5.8 NE 9 13 5 7 1017.5 1018.2 0.0
31/12:30pm 14.8 11.0 3.9 48 5.2 NNE 13 17 7 9 1017.7 1018.4 0.0
31/12:00pm 14.0 10.3 4.6 53 4.5 ENE 13 17 7 9 1018.1 1018.8 0.0
31/11:30am 13.5 9.9 5.2 57 4.0 NNE 13 17 7 9 1018.7 1019.4 0.0
31/11:00am 12.9 9.5 5.8 62 3.5 NE 13 15 7 8 1019.1 1019.8 0.0
31/10:30am 12.1 8.5 5.0 62 3.4 NNE 13 19 7 10 1019.4 1020.2 0.0
31/10:00am 11.5 8.2 6.2 70 2.6 N 13 17 7 9 1019.5 1020.3 0.0
31/09:30am 10.7 7.5 5.3 69 2.6 NNE 11 13 6 7 1019.9 1020.6 0.0
31/09:00am 9.1 5.5 4.9 75 2.0 N 13 17 7 9 1020.1 1020.8 0.0
31/08:30am 7.9 4.1 3.9 76 1.8 N 13 17 7 9 1020.1 1020.8 0.0
31/08:00am 6.9 3.0 3.2 77 1.6 NNE 13 17 7 9 1020.2 1020.9 0.0
31/07:30am 6.2 1.8 2.8 79 1.5 NNE 15 20 8 11 1020.0 1020.7 0.0
31/07:00am 4.9 0.4 2.1 82 1.2 N 15 20 8 11 1019.9 1020.6 0.0
31/06:30am 4.6 -0.3 1.8 82 1.2 N 17 22 9 12 1019.7 1020.5 0.0
31/06:00am 4.6 0.0 1.8 82 1.2 NNE 15 20 8 11 1019.5 1020.3 0.0
31/05:30am 4.8 -0.5 1.8 81 1.3 N 19 22 10 12 1019.5 1020.3 0.0
31/05:00am 4.6 0.1 2.0 83 1.1 N 15 20 8 11 1019.4 1020.2 0.0
31/04:30am 4.5 -0.4 1.9 83 1.1 N 17 20 9 11 1019.4 1020.2 0.0
31/04:00am 4.7 -0.2 2.1 83 1.1 N 17 19 9 10 1019.4 1020.2 0.0
31/03:30am 4.9 0.4 2.3 83 1.1 N 15 20 8 11 1019.6 1020.4 0.0
31/03:00am 4.8 1.1 2.2 83 1.1 NNE 11 15 6 8 1020.0 1020.7 0.0
31/02:30am 5.4 1.7 2.2 80 1.4 NNE 11 15 6 8 1020.3 1021.0 0.0
31/02:00am 5.7 1.6 2.4 79 1.4 N 13 17 7 9 1020.6 1021.4 0.0
31/01:30am 6.0 2.3 2.3 77 1.6 N 11 15 6 8 1021.0 1021.8 0.0
31/01:00am 5.8 2.5 2.3 78 1.5 NNE 9 15 5 8 1021.3 1022.0 0.0
31/12:30am 5.6 1.9 2.4 80 1.4 NNE 11 17 6 9 1021.4 1022.1 0.0
31/12:00am 5.6 0.8 2.4 80 1.4 NNE 17 19 9 10 1021.6 1022.3 0.0
 
Date/Time
EST
Temp
°C
App
Temp
°C
Dew
Point
Rel
Hum
%
Delta-T
°C
Wind Press
QNH
hPa
Press
MSL
hPa
Rain
since 9 am
mm
Dir
 
Spd
km/h
Gust
km/h
Spd
kts
Gust
kts
30/11:30pm 6.4 1.6 2.5 76 1.7 N 17 20 9 11 1021.8 1022.6 0.0
30/11:00pm 5.5 1.1 2.7 82 1.2 N 15 19 8 10 1022.1 1022.9 0.0
30/10:30pm 4.7 0.6 2.4 85 1.0 N 13 17 7 9 1022.3 1023.1 0.0
30/10:00pm 5.3 1.3 2.7 83 1.1 NNE 13 19 7 10 1022.4 1023.2 0.0
30/09:30pm 5.1 1.7 1.9 80 1.3 NNE 9 15 5 8 1022.5 1023.3 0.0
30/09:00pm 6.9 2.9 3.0 76 1.7 NNE 13 17 7 9 1022.7 1023.4 0.0
30/08:30pm 6.9 2.6 3.2 77 1.6 N 15 17 8 9 1022.8 1023.6 0.0
30/08:00pm 6.5 3.4 3.5 81 1.3 N 9 11 5 6 1022.9 1023.7 0.0
30/07:30pm 7.0 4.4 4.3 83 1.2 N 7 9 4 5 1023.0 1023.8 0.0
30/07:00pm 7.2 5.9 4.2 81 1.4 CALM 0 0 0 0 1022.9 1023.7 0.0
30/06:30pm 9.1 7.9 4.7 74 2.0 CALM 0 0 0 0 1022.8 1023.6 0.0
30/06:00pm 10.0 8.9 5.2 72 2.3 CALM 0 6 0 3 1022.9 1023.7 0.0
30/05:30pm 11.8 10.1 4.1 59 3.6 E 2 7 1 4 1022.8 1023.6 0.0
30/05:00pm 13.0 10.8 3.1 51 4.6 N 4 6 2 3 1022.8 1023.6 0.0
30/04:30pm 13.3 10.4 2.8 49 4.9 NNE 7 11 4 6 1022.7 1023.4 0.0
30/04:00pm 13.5 10.8 3.6 51 4.6 NE 7 11 4 6 1022.7 1023.4 0.0
30/03:30pm 13.4 10.2 2.9 49 4.9 ENE 9 13 5 7 1022.9 1023.7 0.0
30/03:00pm 13.3 9.6 2.5 48 4.9 NE 11 15 6 8 1022.9 1023.7 0.0
30/02:30pm 13.2 9.5 2.4 48 4.9 NE 11 19 6 10 1023.2 1024.0 0.0

Other Formats:

Comma delimited format used in spreadsheet applications
http://www.bom.gov.au/fwo/IDV60801/IDV60801.94913.axf

JavaScript Object Notation format (JSON) in row-major order
http://www.bom.gov.au/fwo/IDV60801/IDV60801.94913.json